Time;durP1;ratioP1;P1;durP2;ratioP2;P2;SDS_P1;SDS_P2;PMS_P1;PMS_P2;Temp;Humidity;BMP_temperature;BMP_pressure;BME280_temperature;BME280_humidity;BME280_pressure;Samples;Min_cycle;Max_cycle;Signal;HPM_P1;HPM_P2
2022/08/11 00:01:20;;;;;;;3.72;2.35;;;26.30;41.50;;;;;;4903822;29;21832;-78
2022/08/11 00:03:52;;;;;;;4.20;2.47;;;26.30;41.80;;;;;;4917509;29;20048;-77
2022/08/11 00:06:27;;;;;;;6.32;2.72;;;26.30;41.70;;;;;;4917057;29;20039;-78
2022/08/11 00:08:54;;;;;;;5.13;3.05;;;26.30;41.70;;;;;;4916093;29;20021;-78
2022/08/11 00:11:21;;;;;;;6.35;2.95;;;26.30;42.40;;;;;;4902643;29;20442;-77
2022/08/11 00:13:49;;;;;;;4.65;2.80;;;26.20;42.00;;;;;;4902667;29;20033;-77
2022/08/11 00:16:20;;;;;;;5.57;2.65;;;26.20;42.30;;;;;;4916896;29;20029;-77
2022/08/11 00:18:52;;;;;;;4.32;2.88;;;26.10;42.20;;;;;;4902294;29;20079;-77
2022/08/11 00:21:20;;;;;;;4.00;2.70;;;26.00;42.60;;;;;;4917269;29;20041;-77
2022/08/11 00:24:09;;;;;;;7.68;2.67;;;25.90;43.20;;;;;;4902437;29;20024;-77
2022/08/11 00:26:35;;;;;;;2.67;2.20;;;26.00;42.70;;;;;;4901943;29;20043;-78
2022/08/11 00:29:11;;;;;;;3.67;2.83;;;26.00;42.70;;;;;;4902506;29;20041;-77
2022/08/11 00:31:42;;;;;;;7.57;2.80;;;26.00;43.00;;;;;;4916842;29;20037;-77
2022/08/11 00:34:11;;;;;;;3.67;2.85;;;25.90;43.00;;;;;;4902079;29;20025;-77
2022/08/11 00:37:09;;;;;;;5.20;2.90;;;25.90;42.80;;;;;;4902262;29;20075;-77
2022/08/11 00:39:50;;;;;;;8.73;2.83;;;25.90;43.00;;;;;;4902241;29;20446;-77
2022/08/11 00:42:44;;;;;;;5.93;3.20;;;25.90;43.20;;;;;;4901847;29;20036;-77
2022/08/11 00:45:41;;;;;;;4.22;2.60;;;25.80;43.10;;;;;;4902145;29;20072;-77
2022/08/11 00:48:31;;;;;;;5.68;2.95;;;25.80;43.40;;;;;;4908888;29;20079;-77
2022/08/11 00:51:32;;;;;;;5.17;4.13;;;25.80;43.60;;;;;;4901833;29;20052;-77
2022/08/11 00:54:13;;;;;;;4.70;2.70;;;25.70;44.00;;;;;;4912139;29;20036;-77
2022/08/11 00:57:14;;;;;;;3.42;2.97;;;25.70;43.30;;;;;;4901891;29;20515;-77
2022/08/11 01:00:12;;;;;;;6.65;2.60;;;25.60;44.00;;;;;;4899110;29;20064;-77
2022/08/11 01:02:43;;;;;;;7.50;3.05;;;25.70;43.80;;;;;;4901665;29;20057;-77
2022/08/11 01:05:15;;;;;;;4.97;2.72;;;25.60;44.20;;;;;;4900620;29;20123;-77
2022/08/11 01:07:49;;;;;;;5.97;3.40;;;25.60;44.10;;;;;;4900935;29;20029;-77
2022/08/11 01:10:43;;;;;;;3.22;2.78;;;25.50;44.20;;;;;;4922269;29;20039;-77
2022/08/11 01:13:46;;;;;;;6.05;3.00;;;25.50;44.30;;;;;;4913112;29;20119;-77
2022/08/11 01:16:11;;;;;;;4.05;2.83;;;25.50;43.90;;;;;;4901087;29;20044;-77
2022/08/11 01:18:53;;;;;;;4.07;3.05;;;25.50;44.20;;;;;;4901305;29;20037;-77
2022/08/11 01:21:30;;;;;;;5.55;3.22;;;25.50;44.10;;;;;;4901411;29;20032;-78
2022/08/11 01:24:40;;;;;;;6.10;3.00;;;25.40;44.60;;;;;;4901460;29;20024;-77
2022/08/11 01:27:27;;;;;;;4.82;2.75;;;25.30;44.70;;;;;;4895790;29;20055;-77
2022/08/11 01:30:25;;;;;;;4.38;2.35;;;25.30;44.60;;;;;;4901200;29;20067;-77
2022/08/11 01:33:21;;;;;;;4.68;3.05;;;25.40;44.60;;;;;;4900966;29;20111;-77
2022/08/11 01:35:52;;;;;;;3.90;2.85;;;25.30;44.30;;;;;;4899994;29;20116;-77
2022/08/11 01:38:36;;;;;;;3.22;2.65;;;25.30;44.40;;;;;;4901221;29;20107;-78
2022/08/11 01:41:13;;;;;;;3.67;2.85;;;25.30;44.50;;;;;;4900318;29;20037;-77
2022/08/11 01:46:50;;;;;;;3.92;2.90;;;25.30;44.70;;;;;;4900726;29;20412;-77
2022/08/11 01:49:30;;;;;;;4.97;2.92;;;25.30;44.30;;;;;;4901031;29;20060;-77
2022/08/11 01:52:28;;;;;;;6.18;2.92;;;25.20;44.70;;;;;;4899914;29;20535;-77
2022/08/11 01:55:22;;;;;;;6.45;3.08;;;25.20;44.80;;;;;;4900564;29;20032;-77
2022/08/11 01:58:11;;;;;;;3.63;2.45;;;25.20;44.50;;;;;;4900858;29;20076;-77
2022/08/11 02:01:29;;;;;;;5.13;2.97;;;25.20;45.10;;;;;;4900530;29;20036;-77
2022/08/11 02:04:17;;;;;;;4.78;2.92;;;25.10;45.00;;;;;;4879737;29;20155;-77
2022/08/11 02:07:20;;;;;;;4.45;2.70;;;25.10;44.80;;;;;;4900650;29;20096;-77
2022/08/11 02:13:43;;;;;;;4.78;2.58;;;25.10;44.80;;;;;;4938518;29;20078;-77
2022/08/11 02:16:34;;;;;;;3.25;2.45;;;24.90;45.80;;;;;;4931173;29;20414;-77
2022/08/11 02:25:19;;;;;;;3.35;2.67;;;24.80;45.80;;;;;;4900754;29;20040;-77
2022/08/11 02:27:54;;;;;;;5.60;2.67;;;24.80;45.80;;;;;;4900266;29;20064;-77
2022/08/11 02:30:24;;;;;;;3.72;2.95;;;24.80;45.60;;;;;;4900027;29;20028;-77
2022/08/11 02:36:27;;;;;;;5.57;3.10;;;24.80;45.70;;;;;;4900366;29;20041;-77
2022/08/11 02:39:13;;;;;;;3.92;2.95;;;24.80;45.60;;;;;;4895642;29;20064;-77
2022/08/11 02:42:21;;;;;;;6.05;2.95;;;24.80;45.70;;;;;;4915108;29;20056;-77
2022/08/11 02:45:25;;;;;;;3.58;2.53;;;24.80;45.50;;;;;;4898975;29;20377;-77
2022/08/11 02:51:07;;;;;;;7.35;3.30;;;24.80;45.40;;;;;;4900138;29;20043;-77
2022/08/11 02:53:39;;;;;;;4.00;2.83;;;24.70;45.90;;;;;;4900251;29;20061;-77
2022/08/11 02:56:26;;;;;;;5.20;3.13;;;24.70;46.00;;;;;;4900193;29;20429;-77
2022/08/11 03:02:05;;;;;;;;;;;24.60;45.90;;;;;;4900266;29;20578;-77
2022/08/11 03:04:50;;;;;;;5.72;3.10;;;24.60;45.90;;;;;;4898774;29;20291;-77
2022/08/11 03:07:24;;;;;;;5.60;3.35;;;24.60;45.70;;;;;;4900126;29;20136;-77
2022/08/11 03:09:59;;;;;;;5.35;2.78;;;24.50;46.10;;;;;;4914148;29;20036;-77
2022/08/11 03:16:44;;;;;;;5.00;3.00;;;24.40;46.20;;;;;;4938145;29;20175;-77
2022/08/11 03:18:40;;;;;;;6.05;2.63;;;24.40;46.10;;;;;;4903882;29;20060;-77
2022/08/11 03:21:14;;;;;;;6.50;3.22;;;24.40;46.10;;;;;;4914779;29;20043;-77
2022/08/11 03:24:00;;;;;;;7.35;3.05;;;24.40;46.10;;;;;;4903425;29;20036;-77
2022/08/11 03:26:41;;;;;;;3.92;2.83;;;24.40;46.10;;;;;;4903643;29;20037;-77
2022/08/11 03:29:30;;;;;;;4.72;2.90;;;24.30;46.00;;;;;;4903564;29;20249;-77
2022/08/11 03:32:24;;;;;;;4.55;3.00;;;24.30;46.20;;;;;;4903445;29;20564;-77
2022/08/11 03:34:53;;;;;;;4.13;3.00;;;24.30;46.00;;;;;;4889894;29;20092;-77
2022/08/11 03:37:50;;;;;;;6.88;3.03;;;24.30;45.70;;;;;;4903039;29;20036;-77
2022/08/11 03:41:41;;;;;;;3.60;3.08;;;24.30;45.90;;;;;;4917873;29;20108;-77
2022/08/11 03:43:28;;;;;;;7.88;3.65;;;24.30;45.90;;;;;;4902997;29;20048;-77
2022/08/11 03:46:27;;;;;;;5.03;2.90;;;24.30;45.70;;;;;;4899773;29;20044;-77
2022/08/11 03:49:15;;;;;;;5.22;3.15;;;24.30;45.80;;;;;;4894523;29;20037;-77
2022/08/11 03:52:13;;;;;;;4.03;3.33;;;24.30;45.70;;;;;;4903008;29;20057;-77
2022/08/11 03:55:06;;;;;;;3.53;2.90;;;24.20;45.70;;;;;;4902819;29;20366;-77
2022/08/11 03:57:40;;;;;;;4.03;2.97;;;24.20;45.70;;;;;;4903196;29;20032;-77
2022/08/11 04:00:25;;;;;;;6.32;3.22;;;24.30;45.50;;;;;;4903215;29;20035;-77
2022/08/11 04:02:56;;;;;;;5.95;3.05;;;24.20;45.50;;;;;;4917088;29;20048;-77
2022/08/11 04:06:12;;;;;;;7.10;3.67;;;24.10;45.30;;;;;;4917277;29;20596;-77
2022/08/11 04:08:52;;;;;;;7.68;2.95;;;24.10;45.30;;;;;;4902521;29;20629;-77
2022/08/11 04:11:50;;;;;;;4.53;3.15;;;24.10;45.10;;;;;;4940021;29;20055;-77
2022/08/11 04:17:56;;;;;;;3.60;2.88;;;24.10;45.00;;;;;;4892734;29;20067;-77
2022/08/11 04:20:35;;;;;;;5.80;2.90;;;24.10;45.00;;;;;;4917300;29;20032;-77
2022/08/11 04:23:48;;;;;;;2.75;2.53;;;24.10;45.00;;;;;;4916537;29;20103;-77
2022/08/11 04:26:52;;;;;;;5.03;3.13;;;24.00;45.30;;;;;;4862863;29;20052;-77
2022/08/11 04:29:31;;;;;;;6.40;2.90;;;24.00;45.10;;;;;;4902201;29;20481;-77
2022/08/11 04:32:30;;;;;;;4.25;2.30;;;24.00;45.10;;;;;;4902093;29;20053;-77
2022/08/11 04:35:23;;;;;;;8.23;3.30;;;24.00;45.30;;;;;;4916645;29;20041;-77
2022/08/11 04:38:05;;;;;;;4.88;3.03;;;23.90;45.20;;;;;;4902259;29;20055;-77
2022/08/11 04:41:13;;;;;;;3.45;2.45;;;23.90;45.40;;;;;;4902175;29;20028;-77
2022/08/11 04:43:57;;;;;;;6.53;2.90;;;23.90;45.50;;;;;;4901976;29;20064;-77
2022/08/11 04:46:41;;;;;;;5.90;3.33;;;23.80;45.40;;;;;;4901791;29;20035;-77
2022/08/11 05:01:54;;;;;;;6.15;2.78;;;23.80;44.90;;;;;;4903756;29;20063;-79
2022/08/11 05:08:07;;;;;;;4.90;2.83;;;23.80;44.80;;;;;;4914787;29;20032;-78
2022/08/11 05:11:00;;;;;;;4.10;2.72;;;23.80;44.80;;;;;;4925534;29;20067;-81
2022/08/11 05:36:49;;;;;;;3.17;2.72;;;23.90;44.10;;;;;;4905677;29;20108;-85
2022/08/11 05:56:18;;;;;;;4.18;2.75;;;23.90;43.80;;;;;;4900576;29;20691;-86
2022/08/11 05:58:52;;;;;;;3.25;2.90;;;24.00;43.80;;;;;;4914997;29;20083;-86
2022/08/11 06:01:32;;;;;;;4.10;2.67;;;24.00;43.80;;;;;;4903163;29;20032;-81
2022/08/11 06:04:13;;;;;;;3.22;2.88;;;24.00;43.70;;;;;;4915012;29;20116;-86
2022/08/11 06:07:00;;;;;;;3.78;2.97;;;24.00;43.50;;;;;;4900295;29;20036;-85
2022/08/11 06:09:29;;;;;;;7.30;2.70;;;24.10;43.50;;;;;;4908198;29;20115;-86
2022/08/11 06:11:59;;;;;;;4.28;2.65;;;24.10;43.40;;;;;;4931486;29;20045;-85
2022/08/11 06:14:25;;;;;;;3.95;2.75;;;24.00;43.20;;;;;;4900391;29;20041;-85
2022/08/11 06:16:57;;;;;;;5.20;2.83;;;24.10;43.40;;;;;;4900226;29;20029;-86
2022/08/11 06:19:32;;;;;;;5.32;2.92;;;24.10;44.00;;;;;;4911669;29;20071;-86
2022/08/11 06:21:59;;;;;;;3.92;2.85;;;24.10;43.60;;;;;;4915023;29;20032;-85
2022/08/11 06:24:28;;;;;;;4.45;2.63;;;24.10;43.50;;;;;;4900628;29;20040;-86
2022/08/11 06:26:55;;;;;;;4.78;2.20;;;24.10;43.30;;;;;;4907856;29;20077;-85
2022/08/11 06:29:22;;;;;;;4.13;2.90;;;24.20;43.00;;;;;;4900542;29;20033;-85
2022/08/11 06:32:00;;;;;;;4.80;2.78;;;24.20;43.60;;;;;;4898680;29;20036;-86
2022/08/11 06:35:12;;;;;;;3.03;2.58;;;24.20;43.50;;;;;;4900360;29;20048;-86
2022/08/11 06:37:42;;;;;;;3.72;2.55;;;24.20;43.50;;;;;;4901557;29;20068;-86
2022/08/11 06:40:15;;;;;;;4.00;2.40;;;24.30;43.10;;;;;;4908595;29;20032;-86
2022/08/11 06:42:55;;;;;;;4.80;2.85;;;24.30;43.20;;;;;;4900349;29;20512;-86
2022/08/11 06:45:32;;;;;;;3.58;2.53;;;24.30;43.00;;;;;;4900192;29;20112;-86
2022/08/11 06:48:00;;;;;;;3.97;2.80;;;24.30;43.10;;;;;;4899005;29;20040;-86
2022/08/11 06:53:16;;;;;;;2.88;2.47;;;24.30;42.90;;;;;;4900215;29;20031;-86
2022/08/11 07:01:31;;;;;;;3.95;2.95;;;24.40;43.30;;;;;;4904096;29;20044;-85
2022/08/11 07:04:07;;;;;;;2.63;2.33;;;24.50;43.30;;;;;;4937582;29;20048;-86
2022/08/11 07:15:40;;;;;;;6.53;3.20;;;24.50;43.20;;;;;;4937381;29;20024;-85
2022/08/11 07:15:43;;;;;;;6.35;3.65;;;24.80;42.60;;;;;;4903622;29;20131;-86
2022/08/11 07:30:07;;;;;;;2.90;2.10;;;33.10;29.60;;;;;;4903480;29;20483;-86
2022/08/11 07:32:48;;;;;;;2.80;2.33;;;35.30;26.80;;;;;;4903339;29;20032;-86
2022/08/11 07:35:23;;;;;;;2.72;2.08;;;35.30;25.50;;;;;;4903236;29;20477;-86
2022/08/11 07:38:00;;;;;;;3.40;2.00;;;33.80;27.30;;;;;;4903208;29;20062;-85
2022/08/11 07:40:26;;;;;;;3.42;2.20;;;32.40;28.80;;;;;;4902718;29;20067;-86
2022/08/11 07:42:54;;;;;;;3.22;2.22;;;32.10;29.50;;;;;;4903275;29;20028;-86
2022/08/11 07:53:38;;;;;;;2.40;1.90;;;35.90;25.20;;;;;;4903284;29;20035;-87
2022/08/11 07:56:05;;;;;;;2.92;1.67;;;37.70;23.40;;;;;;4902858;29;20060;-87
2022/08/11 08:18:06;;;;;;;3.13;1.65;;;43.60;17.70;;;;;;4902512;29;20099;-87
2022/08/11 08:20:50;;;;;;;2.22;1.65;;;43.90;17.70;;;;;;4916344;29;20423;-87
2022/08/11 08:23:31;;;;;;;1.55;1.40;;;43.90;17.30;;;;;;4917147;29;20692;-87
2022/08/11 08:26:00;;;;;;;4.10;1.90;;;44.20;17.30;;;;;;4902504;29;20032;-87
2022/08/11 08:28:27;;;;;;;2.28;1.55;;;44.30;16.80;;;;;;4903823;29;20040;-87
2022/08/11 08:30:55;;;;;;;3.35;1.25;;;44.50;16.70;;;;;;4902067;29;20089;-87
2022/08/11 08:33:30;;;;;;;5.38;1.67;;;44.50;16.80;;;;;;4902013;29;20013;-86
2022/08/11 08:36:11;;;;;;;4.75;1.70;;;44.80;16.40;;;;;;4902281;29;20024;-86
2022/08/11 08:38:48;;;;;;;6.22;2.05;;;44.90;16.40;;;;;;4902013;29;20084;-87
2022/08/11 08:41:20;;;;;;;3.00;1.55;;;45.00;16.40;;;;;;4916810;29;20064;-85
2022/08/11 08:43:50;;;;;;;3.03;1.67;;;45.20;15.80;;;;;;4901958;29;20563;-87
2022/08/11 08:46:20;;;;;;;7.63;1.98;;;45.00;15.90;;;;;;4916438;29;20047;-86
2022/08/11 08:48:48;;;;;;;1.60;1.20;;;44.60;16.10;;;;;;4902113;29;20485;-85
2022/08/11 08:54:13;;;;;;;5.60;4.53;;;43.30;16.50;;;;;;4901928;29;20052;-85
2022/08/11 08:56:41;;;;;;;4.80;1.63;;;42.20;17.10;;;;;;4901811;29;20052;-85
2022/08/11 08:59:11;;;;;;;5.97;1.35;;;41.10;17.60;;;;;;4901865;29;20036;-85
2022/08/11 09:01:54;;;;;;;2.88;1.60;;;40.10;18.40;;;;;;4901287;29;20045;-85
2022/08/11 09:04:21;;;;;;;2.20;1.25;;;40.10;18.10;;;;;;4901783;29;20029;-85
2022/08/11 09:06:47;;;;;;;2.67;1.70;;;40.00;18.00;;;;;;4901163;29;20043;-85
2022/08/11 09:09:13;;;;;;;6.88;1.70;;;40.80;16.80;;;;;;4906378;29;20037;-84
2022/08/11 09:11:54;;;;;;;2.47;1.48;;;41.70;16.70;;;;;;4919640;29;20115;-85
2022/08/11 09:14:59;;;;;;;2.67;1.50;;;42.80;16.30;;;;;;4901682;29;20452;-85
2022/08/11 09:17:17;;;;;;;2.13;1.55;;;43.30;15.30;;;;;;4901398;29;20060;-85
2022/08/11 09:19:45;;;;;;;1.98;1.38;;;43.60;16.00;;;;;;4901304;29;20024;-85
2022/08/11 09:27:42;;;;;;;4.15;1.67;;;42.60;15.70;;;;;;4901127;29;20056;-85
2022/08/11 09:30:10;;;;;;;2.17;1.60;;;41.70;16.60;;;;;;4901167;29;20029;-85
2022/08/11 09:32:39;;;;;;;2.47;1.80;;;41.10;17.50;;;;;;4901034;29;20064;-84
2022/08/11 09:35:06;;;;;;;4.28;1.88;;;41.40;16.80;;;;;;4901165;29;20025;-84
2022/08/11 09:40:30;;;;;;;5.97;1.88;;;42.20;15.20;;;;;;4901062;29;20031;-85
2022/08/11 09:45:50;;;;;;;4.45;4.05;;;43.90;15.00;;;;;;4901052;29;19958;-85
2022/08/11 09:48:21;;;;;;;2.40;1.40;;;44.70;14.60;;;;;;4918773;29;20046;-85
2022/08/11 09:50:58;;;;;;;2.33;2.00;;;45.30;14.40;;;;;;4919609;29;20024;-84
2022/08/11 09:53:29;;;;;;;2.13;1.30;;;45.20;13.80;;;;;;4918763;29;20061;-84
2022/08/11 09:55:55;;;;;;;3.35;1.75;;;45.50;13.20;;;;;;4915037;29;20188;-85
2022/08/11 09:58:23;;;;;;;3.42;2.67;;;45.60;13.30;;;;;;4900660;29;20025;-85
2022/08/11 10:00:50;;;;;;;4.82;4.32;;;45.20;12.90;;;;;;4900587;29;20033;-85
2022/08/11 10:03:19;;;;;;;2.60;1.40;;;45.20;13.60;;;;;;4900443;29;20579;-84
2022/08/11 10:08:34;;;;;;;3.83;1.60;;;45.00;13.70;;;;;;4900576;29;20109;-84
2022/08/11 10:11:01;;;;;;;5.18;3.70;;;45.10;13.20;;;;;;4925961;29;20060;-85
2022/08/11 10:15:32;;;;;;;6.30;2.00;;;44.90;13.70;;;;;;4919478;29;20024;-86
2022/08/11 10:16:19;;;;;;;3.38;1.70;;;44.80;13.00;;;;;;4912540;29;20059;-86
2022/08/11 10:18:52;;;;;;;2.65;1.73;;;44.90;13.80;;;;;;4900536;29;20032;-85
2022/08/11 10:21:27;;;;;;;2.72;1.58;;;44.50;13.60;;;;;;4900281;29;20492;-85
2022/08/11 10:26:59;;;;;;;2.65;1.52;;;44.60;14.20;;;;;;4900319;29;20043;-85
2022/08/11 10:35:13;;;;;;;5.20;1.40;;;43.20;14.00;;;;;;4900300;29;20055;-86
2022/08/11 10:37:41;;;;;;;2.22;1.60;;;42.30;15.00;;;;;;4900312;29;20048;-86
2022/08/11 10:40:09;;;;;;;2.78;1.70;;;41.70;15.30;;;;;;4900382;29;20062;-84
2022/08/11 10:48:06;;;;;;;2.38;1.40;;;39.10;16.90;;;;;;4899992;29;20039;-85
2022/08/11 10:58:50;;;;;;;2.15;1.55;;;37.80;17.80;;;;;;4900472;29;20043;-85
2022/08/11 11:01:34;;;;;;;6.60;1.65;;;37.50;17.90;;;;;;4898881;29;20048;-84
2022/08/11 11:04:06;;;;;;;2.35;1.67;;;37.40;18.30;;;;;;4900095;29;20056;-86
2022/08/11 11:06:57;;;;;;;2.63;1.73;;;37.30;18.30;;;;;;4899815;29;20024;-84
2022/08/11 11:09:38;;;;;;;2.88;1.75;;;36.90;17.80;;;;;;4906936;29;20031;-85
2022/08/11 11:17:56;;;;;;;3.45;1.77;;;35.90;17.80;;;;;;4910561;29;20408;-83
2022/08/11 11:20:24;;;;;;;2.67;1.63;;;35.90;18.80;;;;;;4900014;29;20040;-86
2022/08/11 11:22:56;;;;;;;3.38;1.63;;;36.20;18.90;;;;;;4899787;29;20036;-85
2022/08/11 11:25:40;;;;;;;1.50;1.30;;;36.40;18.60;;;;;;4898800;29;20095;-86
2022/08/11 11:28:27;;;;;;;2.50;1.42;;;36.60;18.90;;;;;;4899732;29;20028;-86
2022/08/11 11:31:02;;;;;;;2.58;1.30;;;36.60;18.50;;;;;;4899706;29;20096;-83
2022/08/11 11:33:46;;;;;;;3.33;1.20;;;36.10;16.70;;;;;;4899823;29;20036;-83
2022/08/11 11:36:17;;;;;;;5.60;2.42;;;35.90;17.10;;;;;;4899585;29;20029;-86
2022/08/11 11:38:43;;;;;;;4.63;1.20;;;35.70;17.50;;;;;;4899890;29;20043;-84
2022/08/11 11:41:24;;;;;;;4.38;1.20;;;35.90;17.90;;;;;;4914251;29;20029;-84
2022/08/11 11:43:53;;;;;;;2.20;1.38;;;36.20;17.90;;;;;;4902335;29;20028;-84
2022/08/11 11:46:19;;;;;;;4.35;1.48;;;36.20;17.00;;;;;;4902090;29;20036;-84
2022/08/11 11:48:46;;;;;;;1.92;1.02;;;36.10;17.70;;;;;;4903073;29;20024;-84
2022/08/11 11:51:12;;;;;;;3.00;1.13;;;36.30;17.80;;;;;;4902847;29;20039;-84
2022/08/11 11:53:42;;;;;;;2.30;1.30;;;36.40;17.60;;;;;;4917733;29;20044;-85
2022/08/11 11:56:09;;;;;;;3.05;1.30;;;36.40;18.10;;;;;;4903015;29;20029;-84
2022/08/11 12:01:23;;;;;;;3.25;1.25;;;36.30;17.60;;;;;;4902649;29;20039;-85
2022/08/11 12:03:50;;;;;;;;;;;36.40;17.90;;;;;;4903207;29;20040;-84
2022/08/11 12:06:17;;;;;;;2.28;1.20;;;36.30;18.40;;;;;;4920019;29;19938;-85
2022/08/11 12:08:47;;;;;;;3.90;1.30;;;36.30;17.60;;;;;;4920388;29;20032;-85
2022/08/11 12:14:03;;;;;;;3.15;1.20;;;36.30;18.10;;;;;;4915517;29;20038;-85
2022/08/11 12:16:30;;;;;;;4.03;1.50;;;36.40;18.40;;;;;;4916877;29;20125;-84
2022/08/11 12:18:58;;;;;;;2.67;1.30;;;36.30;18.40;;;;;;4902533;29;20016;-84
2022/08/11 12:21:26;;;;;;;2.85;1.50;;;36.30;18.80;;;;;;4916491;29;20084;-84
2022/08/11 12:29:18;;;;;;;2.58;1.60;;;36.30;18.30;;;;;;4902488;29;20116;-85
2022/08/11 12:31:44;;;;;;;2.88;1.33;;;36.40;18.90;;;;;;4916697;29;20484;-84
2022/08/11 12:34:15;;;;;;;2.80;1.25;;;36.60;19.00;;;;;;4902157;29;20032;-84
2022/08/11 12:37:04;;;;;;;4.70;1.35;;;36.60;18.60;;;;;;4915463;29;20053;-83
2022/08/11 12:45:26;;;;;;;2.13;1.20;;;36.30;18.10;;;;;;4902391;29;20047;-84
2022/08/11 12:54:37;;;;;;;2.88;1.13;;;36.00;18.10;;;;;;4920219;29;19953;-85
2022/08/11 13:05:24;;;;;;;2.80;1.50;;;36.20;18.40;;;;;;4901928;29;20107;-84
2022/08/11 13:07:51;;;;;;;2.00;1.40;;;36.20;18.80;;;;;;4915188;29;20092;-85
2022/08/11 13:12:46;;;;;;;4.28;1.48;;;36.10;18.70;;;;;;4921291;29;20078;-84
2022/08/11 13:13:06;;;;;;;4.75;1.42;;;36.00;18.30;;;;;;4909180;29;20040;-84
2022/08/11 13:15:35;;;;;;;2.60;1.40;;;36.10;18.90;;;;;;4901480;29;20028;-83
2022/08/11 13:18:02;;;;;;;3.23;1.20;;;36.10;18.80;;;;;;4901427;29;20032;-84
2022/08/11 13:20:28;;;;;;;5.22;1.60;;;36.20;19.10;;;;;;4901467;29;20747;-84
2022/08/11 13:22:57;;;;;;;2.45;1.17;;;36.30;19.20;;;;;;4901157;29;20060;-83
2022/08/11 13:25:26;;;;;;;2.33;1.55;;;36.10;18.60;;;;;;4916214;29;20519;-83
2022/08/11 13:27:55;;;;;;;4.40;2.00;;;36.00;18.60;;;;;;4915735;29;20063;-84
2022/08/11 13:33:09;;;;;;;3.90;1.40;;;35.80;18.30;;;;;;4900794;29;20090;-83
2022/08/11 13:35:35;;;;;;;1.70;1.25;;;36.00;19.20;;;;;;4901080;29;20029;-85
2022/08/11 13:38:03;;;;;;;4.90;1.50;;;36.00;17.90;;;;;;4901182;29;20040;-85
2022/08/11 13:40:30;;;;;;;2.00;1.60;;;36.00;18.00;;;;;;4900877;29;20051;-85
2022/08/11 13:42:57;;;;;;;2.53;1.15;;;35.90;18.50;;;;;;4900983;29;20025;-85
2022/08/11 13:45:25;;;;;;;3.88;1.70;;;36.10;19.20;;;;;;4901186;29;20048;-85
2022/08/11 13:47:58;;;;;;;3.65;1.67;;;36.20;18.70;;;;;;4900635;29;20109;-84
2022/08/11 13:53:11;;;;;;;4.07;1.48;;;36.00;18.20;;;;;;4901107;29;20453;-84
2022/08/11 13:55:40;;;;;;;1.83;1.17;;;35.80;18.70;;;;;;4915279;29;20738;-84
2022/08/11 13:58:12;;;;;;;3.33;1.50;;;35.80;18.80;;;;;;4899927;29;20028;-84
2022/08/11 14:00:38;;;;;;;4.50;1.33;;;36.00;18.60;;;;;;4900956;29;20080;-83
2022/08/11 14:03:10;;;;;;;2.40;1.33;;;36.20;18.80;;;;;;4900646;29;20576;-84
2022/08/11 14:05:46;;;;;;;2.42;1.30;;;36.20;18.20;;;;;;4912176;29;20386;-86
2022/08/11 14:08:16;;;;;;;2.88;1.80;;;36.10;18.40;;;;;;4900241;29;20021;-83
2022/08/11 14:10:43;;;;;;;3.55;1.20;;;36.00;18.50;;;;;;4923596;29;20020;-83
2022/08/11 14:16:03;;;;;;;2.50;1.30;;;36.10;18.60;;;;;;4900687;29;20036;-84
2022/08/11 14:18:31;;;;;;;4.15;1.27;;;36.20;18.50;;;;;;4900170;29;20404;-83
2022/08/11 14:23:49;;;;;;;3.28;1.30;;;36.40;18.10;;;;;;4900599;29;20069;-83
2022/08/11 14:26:22;;;;;;;2.50;1.48;;;36.50;18.10;;;;;;4900196;29;20036;-84
2022/08/11 14:28:57;;;;;;;3.97;1.48;;;36.40;18.50;;;;;;4900274;29;20028;-83
2022/08/11 14:31:26;;;;;;;5.60;1.60;;;36.20;18.50;;;;;;4900194;29;20085;-84
2022/08/11 14:33:56;;;;;;;4.88;1.67;;;36.00;18.30;;;;;;4900314;29;20049;-85
2022/08/11 14:36:25;;;;;;;3.72;1.63;;;36.20;18.80;;;;;;4900373;29;20053;-84
2022/08/11 14:38:52;;;;;;;2.28;1.33;;;36.10;18.50;;;;;;4900133;29;20029;-84
2022/08/11 14:47:05;;;;;;;1.90;1.20;;;36.10;18.60;;;;;;4899907;29;20052;-84
2022/08/11 14:49:36;;;;;;;3.33;1.02;;;36.20;18.50;;;;;;4913433;29;20420;-84
2022/08/11 14:52:14;;;;;;;3.60;1.30;;;36.30;18.50;;;;;;4900083;29;20060;-85
2022/08/11 14:57:32;;;;;;;1.88;1.10;;;36.10;18.40;;;;;;4900004;29;20035;-84
2022/08/11 15:00:00;;;;;;;2.53;1.15;;;36.20;18.80;;;;;;4900024;29;20092;-83
2022/08/11 15:05:12;;;;;;;2.35;1.10;;;36.30;19.20;;;;;;4918391;29;20084;-84
2022/08/11 15:07:39;;;;;;;2.00;1.40;;;36.30;18.40;;;;;;4918987;29;20032;-84
2022/08/11 15:10:07;;;;;;;2.60;1.40;;;36.30;18.50;;;;;;4908824;29;20096;-84
2022/08/11 15:12:34;;;;;;;1.92;1.25;;;36.30;18.10;;;;;;4900002;29;20021;-84
2022/08/11 15:17:49;;;;;;;2.33;1.30;;;36.30;18.70;;;;;;4903058;29;20068;-83
2022/08/11 15:25:54;;;;;;;2.58;0.90;;;36.30;18.50;;;;;;4903407;29;20113;-85
2022/08/11 15:45:49;;;;;;;2.10;1.27;;;36.20;18.10;;;;;;4903098;29;20043;-85
2022/08/11 15:48:37;;;;;;;4.75;1.17;;;36.20;18.30;;;;;;4903087;29;20029;-85
2022/08/11 15:51:11;;;;;;;3.15;1.10;;;36.00;18.50;;;;;;4920101;29;20024;-83
2022/08/11 15:53:39;;;;;;;2.10;1.63;;;35.90;18.60;;;;;;4920754;29;20063;-84
2022/08/11 15:56:07;;;;;;;2.03;1.20;;;35.80;17.70;;;;;;4921655;29;20035;-82
2022/08/11 16:04:14;;;;;;;2.80;1.10;;;35.80;18.30;;;;;;4913163;29;20637;-85
2022/08/11 16:06:42;;;;;;;6.80;1.13;;;35.90;18.20;;;;;;4919978;29;20032;-83
2022/08/11 16:09:09;;;;;;;5.25;1.55;;;35.80;17.90;;;;;;4914627;29;20485;-85
2022/08/11 16:11:37;;;;;;;1.77;1.23;;;35.80;18.20;;;;;;4927915;29;20032;-80
2022/08/11 16:16:51;;;;;;;2.33;1.30;;;35.60;18.20;;;;;;4903168;29;20031;-83
2022/08/11 16:19:19;;;;;;;2.30;1.33;;;35.50;17.80;;;;;;4911999;29;20024;-84
2022/08/11 16:21:49;;;;;;;2.30;1.58;;;35.30;17.90;;;;;;4921709;29;20024;-84
2022/08/11 16:24:17;;;;;;;2.60;1.15;;;35.40;18.50;;;;;;4904517;29;20139;-85
2022/08/11 16:26:44;;;;;;;1.83;1.23;;;35.40;17.80;;;;;;4914926;29;20514;-84
2022/08/11 16:29:10;;;;;;;2.65;1.55;;;35.50;18.40;;;;;;4921083;29;20484;-83
2022/08/11 16:31:39;;;;;;;2.13;1.30;;;35.40;17.50;;;;;;4905554;29;20036;-81
2022/08/11 16:38:33;;;;;;;1.52;0.95;;;35.40;18.20;;;;;;4901632;29;20036;-83
2022/08/11 16:39:39;;;;;;;3.70;1.40;;;35.20;18.30;;;;;;4904614;29;20083;-82
2022/08/11 16:47:36;;;;;;;2.40;1.33;;;35.30;18.50;;;;;;4902042;29;20036;-83
2022/08/11 16:50:03;;;;;;;3.75;1.70;;;35.30;18.70;;;;;;4901892;29;20060;-83
2022/08/11 16:52:28;;;;;;;2.20;1.00;;;35.20;18.80;;;;;;4901943;29;20028;-82
2022/08/11 16:54:54;;;;;;;2.95;1.35;;;35.20;19.00;;;;;;4916800;29;20053;-83
2022/08/11 17:00:14;;;;;;;4.80;1.35;;;35.20;18.70;;;;;;4902190;29;20468;-82
2022/08/11 17:14:12;;;;;;;3.00;1.30;;;34.80;19.50;;;;;;4909800;29;20043;-83
2022/08/11 17:16:40;;;;;;;1.90;1.17;;;34.80;19.50;;;;;;4901332;29;20374;-82
2022/08/11 17:19:17;;;;;;;4.32;1.63;;;34.80;19.50;;;;;;4901479;29;20052;-82
2022/08/11 17:24:40;;;;;;;2.13;1.17;;;34.60;19.30;;;;;;4901529;29;20026;-80
2022/08/11 17:27:07;;;;;;;3.88;1.42;;;34.50;19.60;;;;;;4909345;29;20071;-82
2022/08/11 17:29:39;;;;;;;2.38;1.20;;;34.40;19.90;;;;;;4904572;29;20067;-81
2022/08/11 17:37:44;;;;;;;2.65;1.38;;;34.30;19.80;;;;;;4920555;29;20042;-82
2022/08/11 17:40:12;;;;;;;5.25;1.45;;;34.30;19.90;;;;;;4919497;29;20082;-81
2022/08/11 17:48:26;;;;;;;4.38;1.52;;;34.10;20.10;;;;;;4901416;29;20047;-81
2022/08/11 17:50:59;;;;;;;4.22;1.40;;;34.00;20.40;;;;;;4900950;29;20060;-82
2022/08/11 18:01:45;;;;;;;2.67;1.20;;;33.70;20.70;;;;;;4920035;29;20532;-81
2022/08/11 18:04:13;;;;;;;3.03;1.55;;;33.60;21.00;;;;;;4913364;29;20123;-82
2022/08/11 18:06:40;;;;;;;2.63;1.15;;;33.50;20.60;;;;;;4901220;29;20025;-82
